Time;durP1;ratioP1;P1;durP2;ratioP2;P2;SDS_P1;SDS_P2;PMS_P1;PMS_P2;Temp;Humidity;BMP_temperature;BMP_pressure;BME280_temperature;BME280_humidity;BME280_pressure;Samples;Min_cycle;Max_cycle;Signal;HPM_P1;HPM_P2
2023/01/12 00:01:29;;;;;;;20.30;4.25;;;8.30;93.10;;;;;;5036306;28;20393;-75
2023/01/12 00:03:55;;;;;;;19.98;4.45;;;8.30;92.80;;;;;;5052698;28;20049;-73
2023/01/12 00:06:22;;;;;;;27.73;4.18;;;8.30;92.40;;;;;;5052844;28;20392;-75
2023/01/12 00:08:49;;;;;;;20.02;4.22;;;8.20;92.60;;;;;;5052596;28;20566;-74
2023/01/12 00:11:16;;;;;;;20.50;5.63;;;8.20;92.80;;;;;;5052372;28;20048;-73
2023/01/12 00:13:43;;;;;;;23.77;3.90;;;8.30;93.00;;;;;;5035903;28;20099;-73
2023/01/12 00:16:39;;;;;;;29.88;6.40;;;8.30;93.10;;;;;;5052484;28;20032;-75
2023/01/12 00:19:11;;;;;;;24.23;5.25;;;8.20;93.20;;;;;;5052375;28;20044;-74
2023/01/12 00:22:11;;;;;;;21.27;4.88;;;8.20;93.60;;;;;;5052536;28;20453;-73
2023/01/12 00:24:35;;;;;;;22.73;5.07;;;8.20;93.60;;;;;;5050215;28;20102;-73
2023/01/12 00:27:03;;;;;;;14.95;4.57;;;8.10;93.70;;;;;;5035927;28;20392;-73
2023/01/12 00:29:29;;;;;;;22.95;4.43;;;8.10;92.70;;;;;;5052470;28;20044;-76
2023/01/12 00:31:56;;;;;;;15.07;4.28;;;8.10;92.90;;;;;;5052073;28;20040;-75
2023/01/12 00:34:22;;;;;;;16.27;4.70;;;8.10;93.00;;;;;;5052052;28;20555;-73
2023/01/12 00:36:49;;;;;;;22.00;4.22;;;8.10;93.10;;;;;;5035768;28;20081;-74
2023/01/12 00:39:15;;;;;;;14.85;4.00;;;8.10;92.90;;;;;;5035902;28;20075;-74
2023/01/12 00:47:11;;;;;;;22.25;4.28;;;8.10;93.10;;;;;;5051916;28;20091;-74
2023/01/12 00:49:39;;;;;;;24.25;5.40;;;8.10;93.10;;;;;;5051892;28;20045;-75
2023/01/12 00:52:07;;;;;;;24.65;6.65;;;8.00;93.10;;;;;;5052078;28;20041;-73
2023/01/12 00:54:33;;;;;;;23.42;4.38;;;8.10;93.10;;;;;;5051674;28;20048;-74
2023/01/12 00:56:59;;;;;;;17.58;4.65;;;8.10;93.10;;;;;;5051413;28;20497;-76
2023/01/12 00:59:26;;;;;;;23.77;6.10;;;8.10;93.30;;;;;;5052008;28;20393;-75
2023/01/12 01:01:52;;;;;;;22.05;4.10;;;8.10;93.40;;;;;;5051428;28;20041;-73
2023/01/12 01:04:17;;;;;;;23.80;7.32;;;8.10;93.60;;;;;;5035371;28;20164;-73
2023/01/12 01:06:43;;;;;;;25.00;5.72;;;8.20;93.40;;;;;;5051679;28;20048;-73
2023/01/12 01:09:09;;;;;;;21.80;5.07;;;8.10;93.40;;;;;;5051643;28;20128;-73
2023/01/12 01:11:35;;;;;;;20.20;5.00;;;8.10;93.90;;;;;;5051827;28;20091;-74
2023/01/12 01:14:01;;;;;;;21.85;4.05;;;8.10;94.00;;;;;;5051527;28;20551;-76
2023/01/12 01:16:28;;;;;;;21.63;5.20;;;8.20;93.90;;;;;;5051535;28;20036;-73
2023/01/12 01:18:54;;;;;;;19.48;4.10;;;8.10;93.90;;;;;;5051521;28;20057;-76
2023/01/12 01:21:20;;;;;;;23.23;4.13;;;8.20;93.80;;;;;;5051716;28;20037;-73
2023/01/12 01:23:46;;;;;;;15.18;4.13;;;8.10;94.00;;;;;;5052377;28;20394;-75
2023/01/12 01:26:17;;;;;;;21.52;4.80;;;8.10;94.00;;;;;;5055958;28;20064;-75
2023/01/12 01:28:44;;;;;;;19.40;4.82;;;8.20;93.90;;;;;;5055810;28;20096;-73
2023/01/12 01:31:13;;;;;;;24.48;4.53;;;8.10;93.90;;;;;;5038835;28;20040;-76
2023/01/12 01:33:40;;;;;;;14.32;4.00;;;8.10;94.00;;;;;;5055685;28;20045;-76
2023/01/12 01:36:06;;;;;;;23.90;4.93;;;8.20;93.80;;;;;;5038854;28;20506;-73
2023/01/12 01:38:32;;;;;;;12.68;3.10;;;8.20;94.00;;;;;;5055653;28;20037;-74
2023/01/12 01:40:58;;;;;;;22.77;4.95;;;8.20;94.20;;;;;;5055635;28;20051;-76
2023/01/12 01:43:25;;;;;;;16.80;3.80;;;8.20;94.00;;;;;;5055564;28;20072;-75
2023/01/12 01:46:10;;;;;;;25.00;5.88;;;8.30;94.00;;;;;;5038691;28;20045;-76
2023/01/12 01:48:38;;;;;;;21.73;6.10;;;8.30;94.50;;;;;;5055256;28;20029;-77
2023/01/12 01:51:08;;;;;;;24.58;6.40;;;8.30;94.60;;;;;;5055371;28;20375;-76
2023/01/12 01:53:37;;;;;;;21.95;4.75;;;8.30;94.50;;;;;;5038462;28;20615;-73
2023/01/12 01:56:11;;;;;;;25.80;4.00;;;8.30;94.30;;;;;;5055090;28;20037;-73
2023/01/12 01:58:46;;;;;;;28.63;5.25;;;8.40;94.30;;;;;;5038312;28;20088;-78
2023/01/12 02:01:12;;;;;;;35.78;6.00;;;8.40;94.20;;;;;;5054974;28;20037;-76
2023/01/12 02:03:39;;;;;;;23.73;4.68;;;8.40;94.70;;;;;;5038656;28;20036;-77
2023/01/12 02:06:06;;;;;;;24.75;5.30;;;8.40;94.90;;;;;;5038574;28;20041;-74
2023/01/12 02:08:47;;;;;;;23.75;5.45;;;8.40;94.90;;;;;;5038262;28;20045;-77
2023/01/12 02:16:52;;;;;;;21.95;5.75;;;8.40;95.00;;;;;;5055004;28;20117;-73
2023/01/12 02:19:31;;;;;;;28.13;5.38;;;8.50;94.90;;;;;;5054706;28;20124;-74
2023/01/12 02:22:00;;;;;;;27.02;4.47;;;8.40;95.30;;;;;;5054862;28;20110;-72
2023/01/12 02:24:43;;;;;;;23.25;4.50;;;8.40;95.30;;;;;;5054557;28;20052;-75
2023/01/12 02:27:46;;;;;;;31.83;7.17;;;8.40;95.20;;;;;;5054588;28;20147;-73
2023/01/12 02:30:35;;;;;;;29.00;6.63;;;8.50;95.50;;;;;;5054741;28;20390;-75
2023/01/12 02:33:10;;;;;;;28.73;6.88;;;8.50;96.00;;;;;;5054394;28;20044;-74
2023/01/12 02:36:04;;;;;;;27.35;5.95;;;8.50;96.30;;;;;;5053034;28;20041;-76
2023/01/12 02:38:49;;;;;;;32.95;7.05;;;8.50;96.60;;;;;;5054611;28;20043;-74
2023/01/12 02:44:34;;;;;;;31.10;6.65;;;8.50;96.00;;;;;;5054459;28;20052;-74
2023/01/12 02:47:02;;;;;;;29.52;5.32;;;8.50;96.20;;;;;;5054230;28;20542;-73
2023/01/12 02:49:30;;;;;;;28.75;6.57;;;8.60;96.00;;;;;;5054303;28;20088;-75
2023/01/12 02:52:02;;;;;;;25.05;5.60;;;8.60;96.10;;;;;;5054222;28;20435;-76
2023/01/12 02:54:31;;;;;;;30.65;6.63;;;8.60;96.20;;;;;;5053941;28;20088;-75
2023/01/12 02:57:04;;;;;;;28.27;6.57;;;8.60;96.00;;;;;;5053815;28;20052;-76
2023/01/12 02:59:33;;;;;;;24.33;6.88;;;8.60;96.10;;;;;;5053895;28;20045;-73
2023/01/12 03:02:07;;;;;;;32.45;6.72;;;8.60;96.10;;;;;;5037151;28;20102;-74
2023/01/12 03:04:33;;;;;;;27.08;6.32;;;8.60;96.10;;;;;;5053891;28;20080;-74
2023/01/12 03:06:59;;;;;;;32.83;6.68;;;8.60;96.10;;;;;;5053772;28;20079;-73
2023/01/12 03:09:28;;;;;;;32.67;6.65;;;8.60;96.50;;;;;;5054006;28;20427;-76
2023/01/12 03:11:59;;;;;;;40.35;10.70;;;8.60;96.80;;;;;;5053596;28;20041;-75
2023/01/12 03:14:26;;;;;;;30.67;7.20;;;8.60;96.90;;;;;;5037016;28;20045;-73
2023/01/12 03:16:55;;;;;;;42.42;8.43;;;8.60;96.80;;;;;;5037338;28;20128;-75
2023/01/12 03:19:26;;;;;;;30.23;6.63;;;8.60;97.00;;;;;;5053485;28;20043;-74
2023/01/12 03:21:59;;;;;;;32.25;6.78;;;8.70;96.60;;;;;;5053449;28;20508;-75
2023/01/12 03:24:39;;;;;;;28.05;7.85;;;8.70;96.70;;;;;;5053488;28;20052;-74
2023/01/12 03:27:24;;;;;;;27.27;6.90;;;8.70;96.90;;;;;;5053410;28;20508;-74
2023/01/12 03:30:06;;;;;;;32.60;7.80;;;8.80;96.70;;;;;;5053396;28;20045;-75
2023/01/12 03:32:33;;;;;;;27.48;5.30;;;8.80;96.90;;;;;;5053238;28;20040;-73
2023/01/12 03:34:59;;;;;;;38.15;6.45;;;8.80;96.80;;;;;;5053161;28;20045;-74
2023/01/12 03:37:38;;;;;;;25.17;6.00;;;8.80;97.00;;;;;;5036845;28;20045;-73
2023/01/12 03:40:10;;;;;;;31.73;6.43;;;8.80;97.10;;;;;;5053447;28;20029;-74
2023/01/12 03:42:40;;;;;;;23.27;6.75;;;8.80;97.10;;;;;;5053031;28;20037;-75
2023/01/12 03:45:17;;;;;;;34.92;6.88;;;8.80;97.20;;;;;;5053349;28;20048;-75
2023/01/12 03:47:43;;;;;;;33.40;6.00;;;8.70;97.00;;;;;;5052511;28;20102;-73
2023/01/12 03:50:19;;;;;;;25.83;5.53;;;8.80;97.00;;;;;;5053202;28;20128;-74
2023/01/12 03:52:46;;;;;;;23.90;5.55;;;8.70;97.00;;;;;;5052907;28;20036;-74
2023/01/12 03:55:16;;;;;;;21.60;4.88;;;8.70;96.80;;;;;;5052876;28;20063;-74
2023/01/12 03:57:43;;;;;;;24.40;6.78;;;8.80;96.90;;;;;;5052624;28;20052;-73
2023/01/12 04:00:11;;;;;;;29.15;6.68;;;8.70;97.00;;;;;;5052704;28;20052;-77
2023/01/12 04:02:36;;;;;;;20.60;6.05;;;8.70;97.00;;;;;;5036133;28;20043;-76
2023/01/12 04:05:03;;;;;;;28.80;5.90;;;8.80;97.00;;;;;;5052653;28;20045;-73
2023/01/12 04:07:29;;;;;;;20.90;4.65;;;8.80;97.00;;;;;;5052722;28;20041;-74
2023/01/12 04:09:56;;;;;;;18.75;5.03;;;8.80;96.70;;;;;;5036301;28;20044;-74
2023/01/12 04:12:21;;;;;;;16.38;3.47;;;8.80;96.40;;;;;;5036300;28;20493;-75
2023/01/12 04:14:48;;;;;;;19.40;4.38;;;8.80;96.30;;;;;;5052350;28;20092;-73
2023/01/12 04:17:14;;;;;;;20.08;4.35;;;8.80;96.20;;;;;;5052475;28;20076;-76
2023/01/12 04:19:40;;;;;;;19.23;4.05;;;8.80;96.30;;;;;;5052454;28;20045;-76
2023/01/12 04:24:54;;;;;;;14.85;3.67;;;8.60;96.20;;;;;;5052310;28;20045;-76
2023/01/12 04:27:19;;;;;;;12.70;3.70;;;8.60;96.10;;;;;;5052226;28;20084;-76
2023/01/12 04:29:45;;;;;;;16.70;3.80;;;8.50;96.10;;;;;;5052236;28;20080;-75
2023/01/12 04:32:11;;;;;;;16.98;3.65;;;8.50;96.40;;;;;;5052097;28;20051;-75
2023/01/12 04:34:38;;;;;;;17.63;3.95;;;8.50;96.60;;;;;;5052443;28;20083;-76
2023/01/12 04:37:04;;;;;;;21.75;4.00;;;8.40;96.60;;;;;;5052364;28;20067;-76
2023/01/12 04:39:29;;;;;;;23.80;4.15;;;8.40;96.60;;;;;;5052082;28;20119;-75
2023/01/12 04:41:55;;;;;;;20.55;4.22;;;8.40;96.60;;;;;;5051895;28;20051;-74
2023/01/12 04:44:21;;;;;;;24.48;4.28;;;8.30;96.80;;;;;;5035413;28;20448;-73
2023/01/12 04:46:50;;;;;;;14.98;3.70;;;8.30;96.90;;;;;;5051915;28;20053;-76
2023/01/12 04:49:16;;;;;;;13.65;2.92;;;8.30;97.00;;;;;;5035367;28;20037;-75
2023/01/12 04:51:42;;;;;;;14.10;3.33;;;8.30;97.00;;;;;;5051882;28;20272;-74
2023/01/12 04:54:11;;;;;;;18.85;4.28;;;8.30;96.90;;;;;;5051954;28;20099;-76
2023/01/12 04:56:37;;;;;;;14.68;3.42;;;8.30;96.80;;;;;;5051863;28;20441;-76
2023/01/12 04:59:05;;;;;;;19.15;3.53;;;8.30;96.80;;;;;;5034377;28;20056;-74
2023/01/12 05:01:31;;;;;;;11.68;2.33;;;8.30;97.10;;;;;;5051681;28;20123;-76
2023/01/12 05:04:00;;;;;;;14.35;2.85;;;8.40;97.10;;;;;;5051714;28;20124;-74
2023/01/12 05:06:27;;;;;;;11.70;2.78;;;8.40;97.00;;;;;;5035049;28;20052;-76
2023/01/12 05:11:37;;;;;;;6.35;1.95;;;8.40;97.30;;;;;;5037733;28;20102;-76
2023/01/12 05:14:04;;;;;;;9.98;3.00;;;8.40;97.60;;;;;;5051731;28;20493;-75
2023/01/12 05:16:30;;;;;;;7.78;1.98;;;8.30;97.60;;;;;;5051792;28;20041;-75
2023/01/12 05:18:55;;;;;;;10.82;2.13;;;8.40;97.80;;;;;;5051551;28;20401;-75
2023/01/12 05:21:22;;;;;;;6.50;1.52;;;8.40;97.90;;;;;;5051691;28;20079;-74
2023/01/12 05:23:50;;;;;;;10.07;1.95;;;8.40;98.00;;;;;;5051468;28;20508;-76
2023/01/12 05:26:16;;;;;;;5.45;1.60;;;8.40;98.00;;;;;;5051760;28;20374;-75
2023/01/12 05:28:41;;;;;;;8.93;1.73;;;8.40;97.80;;;;;;5035128;28;20098;-75
2023/01/12 05:31:10;;;;;;;5.53;1.70;;;8.50;97.90;;;;;;5051752;28;20393;-76
2023/01/12 05:33:37;;;;;;;3.83;1.17;;;8.40;98.10;;;;;;5034793;28;20064;-77
2023/01/12 05:36:08;;;;;;;3.05;1.52;;;8.50;97.90;;;;;;5018528;28;20112;-75
2023/01/12 05:38:33;;;;;;;4.85;1.35;;;8.50;97.90;;;;;;5051676;28;20153;-77
2023/01/12 05:41:01;;;;;;;5.38;1.35;;;8.50;97.80;;;;;;5051337;28;20079;-75
2023/01/12 05:46:12;;;;;;;2.90;1.60;;;8.50;98.10;;;;;;5051338;28;20056;-76
2023/01/12 05:48:38;;;;;;;3.70;1.17;;;8.50;98.10;;;;;;5051298;28;20037;-74
2023/01/12 05:51:06;;;;;;;3.38;0.90;;;8.50;98.10;;;;;;5051258;28;20033;-74
2023/01/12 05:53:32;;;;;;;3.25;1.40;;;8.50;98.10;;;;;;5050837;28;20049;-76
2023/01/12 05:55:57;;;;;;;3.35;1.20;;;8.50;98.20;;;;;;5051362;28;20095;-76
2023/01/12 05:58:24;;;;;;;3.85;1.00;;;8.50;98.40;;;;;;5050913;28;20456;-74
2023/01/12 06:00:50;;;;;;;2.10;0.88;;;8.50;98.20;;;;;;5051164;28;20043;-74
2023/01/12 06:03:16;;;;;;;2.28;0.93;;;8.50;98.60;;;;;;5051021;28;20115;-76
2023/01/12 06:05:42;;;;;;;2.83;1.20;;;8.60;98.30;;;;;;5018087;28;20044;-77
2023/01/12 06:08:07;;;;;;;2.13;0.90;;;8.60;98.40;;;;;;5051135;28;20056;-78
2023/01/12 06:10:35;;;;;;;3.42;1.30;;;8.70;98.60;;;;;;5036567;28;20045;-77
2023/01/12 06:15:46;;;;;;;5.30;1.63;;;8.80;98.40;;;;;;5054713;28;20041;-78
2023/01/12 06:18:11;;;;;;;4.45;1.67;;;8.90;98.70;;;;;;5054686;28;20040;-77
2023/01/12 06:20:37;;;;;;;9.40;2.90;;;9.00;98.10;;;;;;5054741;28;20443;-76
2023/01/12 06:23:06;;;;;;;8.38;3.05;;;9.10;98.20;;;;;;5055462;28;20032;-75
2023/01/12 06:25:32;;;;;;;16.45;3.72;;;9.30;98.40;;;;;;5055144;28;20052;-75
2023/01/12 06:27:58;;;;;;;27.52;6.45;;;9.30;98.20;;;;;;5055271;28;20123;-74
2023/01/12 06:30:23;;;;;;;19.80;4.85;;;9.50;98.30;;;;;;5038290;28;20051;-75
2023/01/12 06:32:49;;;;;;;24.38;5.65;;;9.50;98.10;;;;;;5055134;28;20045;-76
2023/01/12 06:35:15;;;;;;;21.40;3.70;;;9.60;98.20;;;;;;5054595;28;20444;-75
2023/01/12 06:37:41;;;;;;;29.33;7.10;;;9.60;98.20;;;;;;5055182;28;20535;-75
2023/01/12 06:40:08;;;;;;;28.38;6.50;;;9.80;98.20;;;;;;5038288;28;20037;-78
2023/01/12 06:42:36;;;;;;;26.98;4.65;;;9.80;98.20;;;;;;5054762;28;20500;-77
2023/01/12 06:45:05;;;;;;;20.42;4.55;;;9.90;98.00;;;;;;5054868;28;20101;-77
2023/01/12 06:47:30;;;;;;;20.40;4.28;;;10.00;98.00;;;;;;5054723;28;20052;-78
2023/01/12 06:49:57;;;;;;;20.10;4.68;;;10.10;97.90;;;;;;5054759;28;20052;-75
2023/01/12 06:52:24;;;;;;;23.23;5.20;;;10.10;97.90;;;;;;5054502;28;20045;-77
2023/01/12 06:54:51;;;;;;;15.90;4.07;;;10.20;97.70;;;;;;5054333;28;20045;-74
2023/01/12 06:57:17;;;;;;;24.15;4.65;;;10.20;97.60;;;;;;5054407;28;20045;-75
2023/01/12 06:59:43;;;;;;;15.68;4.55;;;10.20;97.50;;;;;;5054754;28;20071;-74
2023/01/12 07:02:14;;;;;;;17.92;4.75;;;10.20;97.60;;;;;;5054188;28;20091;-77
2023/01/12 07:04:40;;;;;;;16.77;4.22;;;10.30;97.50;;;;;;5054433;28;20041;-76
2023/01/12 07:07:08;;;;;;;19.23;3.70;;;10.30;97.60;;;;;;5036875;28;20383;-75
2023/01/12 07:09:34;;;;;;;16.60;3.38;;;10.30;97.50;;;;;;5053872;28;20380;-77
2023/01/12 07:12:01;;;;;;;17.95;5.78;;;10.30;97.40;;;;;;5037303;28;20040;-76
2023/01/12 07:14:26;;;;;;;25.65;6.05;;;10.30;97.40;;;;;;5053960;28;20051;-78
2023/01/12 07:16:52;;;;;;;29.95;4.97;;;10.30;97.30;;;;;;5038050;28;20448;-74
2023/01/12 07:19:18;;;;;;;23.88;4.72;;;10.30;97.40;;;;;;5054107;28;20124;-74
2023/01/12 07:21:43;;;;;;;23.65;4.70;;;10.30;97.50;;;;;;5053288;28;20040;-74
2023/01/12 07:24:09;;;;;;;30.20;5.65;;;10.40;97.40;;;;;;5054196;28;20040;-76
2023/01/12 07:26:35;;;;;;;22.33;4.40;;;10.40;97.20;;;;;;5054220;28;20403;-75
2023/01/12 07:29:01;;;;;;;21.15;4.75;;;10.50;97.10;;;;;;5053994;28;20054;-76
2023/01/12 07:31:27;;;;;;;22.30;4.93;;;10.40;97.20;;;;;;5053981;28;20133;-75
2023/01/12 07:33:53;;;;;;;18.63;5.03;;;10.40;97.20;;;;;;5037267;28;20133;-74
2023/01/12 07:36:20;;;;;;;19.20;5.22;;;10.40;97.20;;;;;;5054080;28;20036;-77
2023/01/12 07:38:45;;;;;;;21.35;4.28;;;10.50;97.00;;;;;;5037390;28;20342;-75
2023/01/12 07:43:55;;;;;;;18.67;5.93;;;10.50;96.90;;;;;;5053629;28;20111;-75
2023/01/12 07:46:21;;;;;;;19.33;4.15;;;10.50;96.80;;;;;;5053387;28;20477;-74
2023/01/12 07:48:47;;;;;;;27.77;5.53;;;10.50;96.70;;;;;;5053506;28;20041;-77
2023/01/12 07:51:13;;;;;;;28.23;7.15;;;10.50;96.80;;;;;;5053432;28;20055;-75
2023/01/12 07:53:38;;;;;;;26.70;4.60;;;10.50;96.90;;;;;;5053087;28;20037;-76
2023/01/12 07:56:04;;;;;;;21.27;4.35;;;10.50;96.80;;;;;;5053201;28;20032;-76
2023/01/12 07:58:30;;;;;;;18.45;5.80;;;10.40;96.90;;;;;;5053155;28;20053;-74
2023/01/12 08:01:00;;;;;;;24.05;4.80;;;10.50;96.80;;;;;;5053295;28;20456;-75
2023/01/12 08:03:25;;;;;;;16.35;3.47;;;10.50;96.80;;;;;;5052807;28;20413;-74
2023/01/12 08:05:53;;;;;;;18.70;4.38;;;10.50;96.90;;;;;;5036602;28;20049;-73
2023/01/12 08:08:18;;;;;;;17.27;4.85;;;10.50;96.80;;;;;;5053017;28;20044;-75
2023/01/12 08:10:47;;;;;;;25.70;5.05;;;10.60;96.80;;;;;;5053135;28;20094;-73
2023/01/12 08:13:13;;;;;;;17.63;3.97;;;10.50;96.80;;;;;;5053245;28;20056;-75
2023/01/12 08:15:43;;;;;;;25.23;5.50;;;10.50;96.70;;;;;;5052849;28;20485;-74
2023/01/12 08:18:15;;;;;;;22.17;4.93;;;10.50;96.70;;;;;;5036539;28;20041;-75
2023/01/12 08:20:41;;;;;;;19.73;3.47;;;10.60;96.60;;;;;;5052876;28;20041;-76
2023/01/12 08:23:23;;;;;;;14.38;4.85;;;10.60;96.80;;;;;;5036109;28;20052;-74
2023/01/12 08:25:55;;;;;;;23.40;5.00;;;10.60;96.60;;;;;;5052410;28;20043;-75
2023/01/12 08:28:25;;;;;;;27.25;4.65;;;10.60;96.50;;;;;;5052566;28;20067;-74
2023/01/12 08:30:51;;;;;;;15.20;2.72;;;10.60;96.50;;;;;;5051695;28;20041;-74
2023/01/12 08:33:18;;;;;;;20.33;3.55;;;10.60;96.70;;;;;;5049674;28;20057;-75
2023/01/12 08:35:45;;;;;;;14.60;3.63;;;10.60;96.60;;;;;;5036127;28;20532;-74
2023/01/12 08:38:11;;;;;;;17.80;3.90;;;10.60;96.60;;;;;;5032190;28;20038;-75
2023/01/12 08:46:19;;;;;;;17.60;4.05;;;10.60;96.50;;;;;;5023641;28;20401;-73
2023/01/12 08:48:45;;;;;;;18.25;4.43;;;10.60;96.50;;;;;;5052077;28;20033;-73
2023/01/12 08:51:10;;;;;;;22.98;5.20;;;10.60;96.60;;;;;;5051924;28;20041;-76
2023/01/12 08:53:36;;;;;;;22.27;4.57;;;10.70;96.50;;;;;;5051823;28;20109;-74
2023/01/12 08:56:02;;;;;;;22.05;4.38;;;10.60;96.50;;;;;;5051860;28;20052;-77
2023/01/12 08:58:27;;;;;;;17.00;3.80;;;10.70;96.60;;;;;;5068296;28;20496;-75
2023/01/12 09:00:53;;;;;;;19.60;4.00;;;10.60;96.60;;;;;;5068353;28;20068;-73
2023/01/12 09:03:19;;;;;;;18.10;3.80;;;10.70;96.50;;;;;;5050417;28;20044;-74
2023/01/12 09:05:46;;;;;;;21.63;4.00;;;10.70;96.20;;;;;;5050640;28;20084;-75
2023/01/12 09:08:12;;;;;;;17.83;3.67;;;10.70;96.20;;;;;;5050643;28;20412;-73
2023/01/12 09:10:38;;;;;;;20.52;4.80;;;10.70;96.40;;;;;;5050206;28;20044;-76
2023/01/12 09:13:03;;;;;;;20.15;3.90;;;10.80;96.10;;;;;;5050510;28;20124;-76
2023/01/12 09:15:29;;;;;;;19.55;5.00;;;10.80;96.00;;;;;;5050226;28;20045;-75
2023/01/12 09:17:55;;;;;;;21.02;4.40;;;10.80;96.10;;;;;;5051829;28;20519;-76
2023/01/12 09:20:21;;;;;;;13.45;3.25;;;10.90;95.80;;;;;;5051461;28;20072;-74
2023/01/12 09:22:47;;;;;;;19.00;4.25;;;10.90;95.80;;;;;;5034971;28;20082;-75
2023/01/12 09:25:13;;;;;;;12.05;3.35;;;10.90;95.80;;;;;;5051794;28;20124;-75
2023/01/12 09:27:38;;;;;;;16.40;3.75;;;11.00;95.70;;;;;;5051428;28;20047;-75
2023/01/12 09:30:05;;;;;;;25.63;5.25;;;10.90;95.60;;;;;;5051888;28;20051;-75
2023/01/12 09:32:31;;;;;;;15.20;4.30;;;11.00;95.50;;;;;;5068418;28;20055;-76
2023/01/12 09:34:58;;;;;;;15.73;4.57;;;10.90;95.40;;;;;;5051324;28;20060;-73
2023/01/12 09:37:25;;;;;;;16.70;3.70;;;11.00;95.50;;;;;;5051697;28;20447;-74
2023/01/12 09:39:50;;;;;;;23.42;5.00;;;11.00;95.40;;;;;;5051387;28;20040;-76
2023/01/12 09:48:02;;;;;;;17.05;3.55;;;10.90;95.40;;;;;;5072103;28;20045;-74
2023/01/12 09:50:30;;;;;;;14.88;4.05;;;11.00;95.30;;;;;;5055135;28;20575;-75
2023/01/12 09:53:00;;;;;;;14.98;3.25;;;11.00;95.10;;;;;;5055510;28;20183;-75
2023/01/12 09:55:56;;;;;;;10.02;2.67;;;11.00;95.10;;;;;;5071943;28;20538;-75
2023/01/12 09:58:34;;;;;;;19.05;3.95;;;11.00;95.20;;;;;;5048119;28;20049;-75
2023/01/12 10:01:07;;;;;;;14.00;3.55;;;11.00;95.20;;;;;;5055570;28;20033;-75
2023/01/12 10:03:37;;;;;;;13.95;3.28;;;11.00;95.20;;;;;;5055023;28;20119;-75
2023/01/12 10:06:05;;;;;;;13.07;4.00;;;11.00;95.20;;;;;;5071604;28;20045;-76
2023/01/12 10:08:55;;;;;;;18.15;3.33;;;11.10;95.10;;;;;;5071530;28;20611;-75
2023/01/12 10:11:55;;;;;;;15.57;3.75;;;11.10;94.90;;;;;;5055084;28;20123;-72
2023/01/12 10:14:31;;;;;;;18.42;3.22;;;11.10;94.70;;;;;;5054934;28;20401;-74
2023/01/12 10:17:19;;;;;;;19.67;4.03;;;11.10;95.20;;;;;;5054787;28;20044;-75
2023/01/12 10:19:50;;;;;;;14.35;2.97;;;11.00;95.30;;;;;;5054629;28;20049;-73
2023/01/12 10:22:43;;;;;;;14.43;3.85;;;11.00;95.40;;;;;;5054684;28;20044;-75
2023/01/12 10:25:23;;;;;;;14.68;4.28;;;11.00;95.30;;;;;;5071561;28;20052;-74
2023/01/12 10:27:53;;;;;;;22.70;4.05;;;11.00;95.30;;;;;;5054622;28;20080;-75
2023/01/12 10:30:30;;;;;;;14.20;4.07;;;11.00;95.30;;;;;;5071063;28;20045;-73
2023/01/12 10:33:15;;;;;;;14.65;3.95;;;11.00;95.60;;;;;;5071135;28;20045;-76
2023/01/12 10:35:58;;;;;;;12.80;3.92;;;11.00;95.60;;;;;;5054413;28;20052;-74
2023/01/12 10:38:25;;;;;;;25.73;4.80;;;11.10;95.60;;;;;;5054334;28;20129;-75
2023/01/12 10:41:05;;;;;;;16.52;3.63;;;11.10;95.40;;;;;;5054557;28;20359;-73
2023/01/12 10:43:32;;;;;;;14.25;4.57;;;11.20;95.10;;;;;;5054243;28;20074;-75
2023/01/12 10:46:05;;;;;;;16.40;3.95;;;11.30;95.00;;;;;;5054238;28;20493;-73
2023/01/12 10:48:31;;;;;;;15.80;3.17;;;11.20;95.00;;;;;;5054216;28;20084;-75
2023/01/12 10:51:01;;;;;;;19.50;3.92;;;11.20;95.10;;;;;;5054269;28;20401;-75
2023/01/12 10:53:57;;;;;;;18.80;5.20;;;11.20;95.00;;;;;;5070784;28;20041;-74
2023/01/12 10:56:36;;;;;;;14.38;3.58;;;11.20;95.00;;;;;;5044047;28;20049;-74
2023/01/12 10:59:20;;;;;;;12.65;2.90;;;11.20;95.00;;;;;;5053835;28;20451;-73
2023/01/12 11:02:11;;;;;;;16.90;3.10;;;11.20;95.20;;;;;;5070948;28;20045;-75
2023/01/12 11:04:39;;;;;;;17.88;3.28;;;11.30;95.20;;;;;;5070608;28;20505;-76
2023/01/12 11:07:14;;;;;;;16.80;3.28;;;11.30;95.00;;;;;;5070776;28;20103;-74
2023/01/12 11:09:41;;;;;;;18.65;3.72;;;11.40;95.00;;;;;;5053927;28;20393;-76
2023/01/12 11:12:32;;;;;;;20.35;4.30;;;11.40;94.90;;;;;;5070654;28;20095;-75
2023/01/12 11:15:14;;;;;;;16.25;3.15;;;11.40;94.70;;;;;;5070362;28;20091;-74
2023/01/12 11:18:04;;;;;;;17.95;3.60;;;11.40;94.90;;;;;;5070710;28;20041;-75
2023/01/12 11:20:39;;;;;;;15.50;4.30;;;11.40;94.80;;;;;;5070223;28;20125;-75
2023/01/12 11:23:12;;;;;;;18.88;3.97;;;11.40;94.90;;;;;;5053814;28;20059;-74
2023/01/12 11:25:45;;;;;;;19.40;3.97;;;11.40;94.90;;;;;;5053579;28;20091;-74
2023/01/12 11:28:23;;;;;;;17.05;3.10;;;11.40;94.90;;;;;;5070061;28;20044;-77
2023/01/12 11:30:57;;;;;;;13.90;3.65;;;11.50;94.90;;;;;;5055055;28;20087;-78
2023/01/12 11:33:40;;;;;;;;;;;11.60;94.60;;;;;;5070557;28;20082;-76
2023/01/12 11:36:10;;;;;;;14.25;3.70;;;11.60;94.60;;;;;;5070026;28;19920;-74
2023/01/12 11:38:42;;;;;;;10.52;3.20;;;11.50;94.60;;;;;;5069883;28;20079;-75
2023/01/12 11:41:17;;;;;;;14.32;3.10;;;11.60;94.40;;;;;;5053190;28;20041;-75
2023/01/12 11:44:07;;;;;;;11.98;3.20;;;11.50;94.50;;;;;;5070166;28;20040;-75
2023/01/12 11:46:39;;;;;;;15.32;3.85;;;11.50;94.40;;;;;;5053104;28;20045;-77
2023/01/12 11:49:14;;;;;;;14.60;3.53;;;11.60;94.40;;;;;;5069701;28;20119;-76
2023/01/12 11:51:40;;;;;;;21.08;5.10;;;11.50;94.50;;;;;;5053007;28;20033;-74
2023/01/12 11:54:12;;;;;;;9.77;2.70;;;11.50;94.40;;;;;;5069502;28;20129;-76
2023/01/12 11:56:40;;;;;;;9.02;2.22;;;11.50;94.40;;;;;;5069568;28;20037;-74
2023/01/12 11:59:17;;;;;;;17.20;4.28;;;11.50;94.60;;;;;;5052567;28;20060;-75
2023/01/12 12:02:05;;;;;;;14.38;4.40;;;11.50;94.70;;;;;;5052814;28;20057;-77
2023/01/12 12:04:50;;;;;;;21.40;3.88;;;11.40;94.90;;;;;;5069395;28;20049;-76
2023/01/12 12:07:22;;;;;;;21.65;4.28;;;11.40;94.90;;;;;;5052413;28;20041;-76
2023/01/12 12:10:21;;;;;;;21.60;4.65;;;11.30;95.10;;;;;;5036259;28;20440;-73
2023/01/12 12:13:05;;;;;;;17.35;3.67;;;11.30;95.30;;;;;;5069282;28;20047;-75
2023/01/12 12:15:31;;;;;;;15.00;3.88;;;11.30;95.40;;;;;;5052481;28;20041;-77
2023/01/12 12:18:29;;;;;;;21.58;4.22;;;11.30;95.40;;;;;;5052518;28;20048;-77
2023/01/12 12:21:14;;;;;;;19.90;4.47;;;11.30;95.30;;;;;;5052385;28;20159;-75
2023/01/12 12:23:53;;;;;;;16.55;2.97;;;11.30;95.30;;;;;;5069005;28;20115;-76
2023/01/12 12:26:23;;;;;;;18.30;5.03;;;11.40;95.40;;;;;;5052376;28;20611;-74
2023/01/12 12:29:02;;;;;;;25.90;4.72;;;11.30;95.10;;;;;;5052234;28;20037;-77
2023/01/12 12:31:36;;;;;;;18.42;3.97;;;11.30;95.20;;;;;;5052310;28;20123;-74
2023/01/12 12:34:19;;;;;;;18.58;5.65;;;11.30;95.30;;;;;;5052106;28;20052;-77
2023/01/12 12:37:23;;;;;;;19.17;4.93;;;11.30;95.30;;;;;;5052214;28;20045;-75
2023/01/12 12:40:24;;;;;;;20.85;4.20;;;11.30;95.00;;;;;;5052048;28;20127;-76
2023/01/12 12:46:15;;;;;;;24.25;5.25;;;11.30;94.90;;;;;;5068707;28;20171;-77
2023/01/12 12:48:56;;;;;;;19.50;4.53;;;11.30;94.90;;;;;;5052210;28;20037;-74
2023/01/12 12:51:24;;;;;;;21.40;3.83;;;11.30;95.00;;;;;;5068597;28;20052;-75
2023/01/12 12:53:51;;;;;;;23.13;4.38;;;11.30;95.20;;;;;;5051747;28;20127;-76
2023/01/12 12:56:20;;;;;;;27.75;5.72;;;11.20;95.10;;;;;;5068511;28;20048;-73
2023/01/12 12:58:48;;;;;;;25.02;6.40;;;11.20;95.20;;;;;;5068253;28;20052;-77
2023/01/12 13:01:21;;;;;;;21.50;4.68;;;11.20;95.30;;;;;;5051763;28;20485;-74
2023/01/12 13:03:57;;;;;;;21.35;4.07;;;11.20;95.30;;;;;;5051710;28;20083;-74
2023/01/12 13:06:42;;;;;;;18.58;4.78;;;11.20;95.20;;;;;;5051621;28;20603;-75
2023/01/12 13:09:11;;;;;;;31.10;5.03;;;11.20;95.10;;;;;;5068320;28;20037;-76
2023/01/12 13:11:57;;;;;;;20.85;4.85;;;11.10;95.10;;;;;;5051666;28;20076;-74
2023/01/12 13:14:40;;;;;;;13.35;3.95;;;11.20;95.20;;;;;;5051851;28;20091;-76
2023/01/12 13:17:18;;;;;;;22.77;5.28;;;11.20;95.20;;;;;;5068311;28;20489;-74
2023/01/12 13:19:57;;;;;;;20.70;6.03;;;11.20;95.30;;;;;;5050838;28;20048;-76
2023/01/12 13:22:46;;;;;;;19.20;5.25;;;11.20;95.30;;;;;;5051596;28;20033;-73
2023/01/12 13:25:15;;;;;;;26.42;5.13;;;11.20;95.50;;;;;;5051492;28;20040;-74
2023/01/12 13:27:59;;;;;;;20.13;4.40;;;11.10;95.70;;;;;;5051766;28;20045;-75
2023/01/12 13:30:27;;;;;;;22.13;4.35;;;11.10;95.70;;;;;;5051885;28;20040;-74
2023/01/12 13:32:58;;;;;;;24.02;5.50;;;11.20;95.70;;;;;;5051468;28;20041;-76
2023/01/12 13:35:33;;;;;;;28.55;8.55;;;11.20;95.60;;;;;;5051442;28;20424;-76
2023/01/12 13:38:35;;;;;;;28.55;5.57;;;11.10;95.70;;;;;;5051365;28;20532;-75
2023/01/12 13:44:23;;;;;;;;;;;11.20;95.60;;;;;;5082699;28;20049;-77
2023/01/12 13:46:52;;;;;;;20.83;4.30;;;11.10;95.60;;;;;;5084900;28;19924;-75
2023/01/12 13:49:34;;;;;;;21.95;4.07;;;11.10;95.60;;;;;;5067958;28;20048;-75